Time;durP1;ratioP1;P1;durP2;ratioP2;P2;SDS_P1;SDS_P2;PMS_P1;PMS_P2;Temp;Humidity;BMP_temperature;BMP_pressure;BME280_temperature;BME280_humidity;BME280_pressure;Samples;Min_cycle;Max_cycle;Signal;HPM_P1;HPM_P2
2021/12/04 00:00:41;;;;;;;3.30;2.35;;;;;;;4.99;70.65;98840.31;5061985;28;20049;-66
2021/12/04 00:03:08;;;;;;;2.80;2.20;;;;;;;5.05;70.55;98845.38;5057294;28;20719;-66
2021/12/04 00:05:38;;;;;;;3.35;2.88;;;;;;;5.07;70.15;98851.41;5057966;28;20067;-66
2021/12/04 00:08:06;;;;;;;2.80;2.22;;;;;;;5.16;69.54;98832.09;5058445;28;20053;-66
2021/12/04 00:10:34;;;;;;;2.67;1.90;;;;;;;5.15;70.10;98835.22;5057839;28;20072;-66
2021/12/04 00:13:02;;;;;;;2.75;2.10;;;;;;;5.15;70.31;98826.94;5057274;28;20052;-66
2021/12/04 00:15:29;;;;;;;2.53;2.15;;;;;;;5.16;69.67;98818.31;5055105;28;20053;-66
2021/12/04 00:17:59;;;;;;;3.15;2.30;;;;;;;5.27;70.24;98819.66;5060279;28;20460;-66
2021/12/04 00:20:30;;;;;;;3.60;2.40;;;;;;;5.30;69.81;98812.69;5055847;28;20072;-66
2021/12/04 00:22:59;;;;;;;2.70;2.10;;;;;;;5.26;70.44;98815.25;5060892;28;20477;-66
2021/12/04 00:25:28;;;;;;;2.50;2.13;;;;;;;5.39;69.37;98809.94;5074651;28;20045;-66
2021/12/04 00:27:59;;;;;;;2.55;1.90;;;;;;;5.43;69.30;98802.66;5068802;28;20049;-66
2021/12/04 00:30:27;;;;;;;2.47;1.90;;;;;;;5.50;69.43;98800.22;5062062;28;20397;-66
2021/12/04 00:33:00;;;;;;;3.40;2.15;;;;;;;5.33;69.46;98801.00;5053991;28;20052;-66
2021/12/04 00:35:44;;;;;;;2.65;2.20;;;;;;;5.35;69.93;98795.97;5054470;28;20067;-66
2021/12/04 00:49:27;;;;;;;2.70;2.42;;;;;;;5.25;69.93;98777.78;5055455;28;20079;-66
2021/12/04 00:51:55;;;;;;;2.83;2.10;;;;;;;5.32;70.15;98773.72;5057473;28;20421;-66
2021/12/04 00:54:24;;;;;;;2.92;2.38;;;;;;;5.36;70.04;98769.19;5058320;28;20486;-66
2021/12/04 00:56:52;;;;;;;3.65;2.35;;;;;;;5.40;69.87;98768.22;5058399;28;20044;-66
2021/12/04 00:59:21;;;;;;;2.63;2.28;;;;;;;5.31;70.09;98769.31;5055529;28;20049;-66
2021/12/04 01:01:49;;;;;;;2.38;2.00;;;;;;;5.55;68.99;98769.69;5056372;28;20481;-66
2021/12/04 01:04:19;;;;;;;2.55;2.15;;;;;;;5.72;69.03;98776.38;5054272;28;20420;-66
2021/12/04 01:06:46;;;;;;;;;;;;;;;5.68;68.48;98777.00;5055629;28;20053;-66
2021/12/04 01:09:15;;;;;;;3.53;2.63;;;;;;;5.63;68.43;98770.84;5057628;28;19920;-66
2021/12/04 01:11:44;;;;;;;3.05;2.10;;;;;;;5.60;69.17;98777.81;5056344;28;20048;-66
2021/12/04 01:14:13;;;;;;;2.25;2.05;;;;;;;5.75;69.00;98772.97;5056282;28;20060;-66
2021/12/04 01:16:42;;;;;;;3.40;2.30;;;;;;;5.65;68.99;98774.91;5073149;28;20052;-66
2021/12/04 01:19:10;;;;;;;2.92;2.15;;;;;;;5.73;68.36;98766.94;5065134;28;20060;-66
2021/12/04 01:21:37;;;;;;;3.33;2.63;;;;;;;5.65;68.94;98771.34;5063662;28;20052;-66
2021/12/04 01:24:05;;;;;;;2.80;2.50;;;;;;;5.70;68.56;98757.38;5069638;28;20048;-66
2021/12/04 01:26:33;;;;;;;2.65;2.08;;;;;;;5.74;68.37;98754.78;5053214;28;20536;-66
2021/12/04 01:29:00;;;;;;;3.05;2.65;;;;;;;5.62;68.77;98744.34;5053685;28;20464;-66
2021/12/04 01:31:27;;;;;;;2.40;2.00;;;;;;;5.54;69.50;98750.69;5053911;28;20056;-66
2021/12/04 01:33:56;;;;;;;2.47;2.10;;;;;;;5.76;68.62;98741.44;5054123;28;20053;-66
2021/12/04 01:36:25;;;;;;;2.50;2.17;;;;;;;5.77;68.47;98743.06;5058465;28;20053;-66
2021/12/04 01:38:52;;;;;;;2.20;1.60;;;;;;;5.77;68.89;98748.59;5074234;28;20063;-66
2021/12/04 01:41:20;;;;;;;3.03;2.25;;;;;;;5.77;68.42;98737.53;5066409;28;20041;-66
2021/12/04 01:43:48;;;;;;;4.28;3.38;;;;;;;5.92;68.50;98745.31;5054415;28;20406;-66
2021/12/04 01:46:15;;;;;;;2.38;2.15;;;;;;;5.85;68.46;98734.75;5053527;28;20049;-66
2021/12/04 01:48:43;;;;;;;2.78;2.30;;;;;;;5.91;68.33;98727.13;5054080;28;20048;-66
2021/12/04 01:51:12;;;;;;;2.78;2.13;;;;;;;5.87;68.18;98717.88;5054630;28;20044;-66
2021/12/04 01:53:39;;;;;;;3.25;2.30;;;;;;;5.85;68.50;98725.66;5067627;28;20389;-66
2021/12/04 01:56:06;;;;;;;2.55;2.17;;;;;;;5.87;68.38;98713.16;5057747;28;20053;-66
2021/12/04 01:58:37;;;;;;;2.45;2.10;;;;;;;5.86;68.44;98719.03;5053506;28;20049;-66
2021/12/04 02:01:04;;;;;;;3.30;2.33;;;;;;;5.82;68.20;98715.28;5053062;28;20060;-66
2021/12/04 02:03:32;;;;;;;2.92;2.00;;;;;;;5.82;68.75;98723.56;5053213;28;20052;-66
2021/12/04 02:05:59;;;;;;;3.33;2.20;;;;;;;5.73;69.06;98715.25;5054471;28;20060;-66
2021/12/04 02:08:28;;;;;;;2.80;2.50;;;;;;;5.78;68.63;98712.34;5053703;28;20103;-66
2021/12/04 02:10:59;;;;;;;3.20;2.50;;;;;;;5.79;68.66;98718.69;5056929;28;20410;-66
2021/12/04 02:13:26;;;;;;;2.97;2.22;;;;;;;5.85;69.15;98711.84;5053392;28;20048;-66
2021/12/04 02:15:54;;;;;;;2.90;2.33;;;;;;;5.76;69.08;98713.81;5053674;28;20144;-66
2021/12/04 02:18:23;;;;;;;3.20;2.88;;;;;;;5.89;68.32;98719.16;5057657;28;20497;-66
2021/12/04 02:20:52;;;;;;;3.90;2.90;;;;;;;5.86;68.63;98707.97;5068080;28;20048;-66
2021/12/04 02:23:20;;;;;;;3.80;2.97;;;;;;;5.90;68.73;98698.69;5068047;28;20044;-66
2021/12/04 02:25:47;;;;;;;3.05;2.75;;;;;;;5.94;68.24;98693.31;5070005;28;20056;-66
2021/12/04 02:28:15;;;;;;;3.00;2.65;;;;;;;5.81;69.00;98688.78;5072423;28;20057;-66
2021/12/04 02:30:45;;;;;;;3.13;2.78;;;;;;;5.81;68.92;98697.06;5055987;28;20041;-66
2021/12/04 02:33:12;;;;;;;;;;;;;;;5.90;68.60;98692.38;5072034;28;20063;-66
2021/12/04 02:35:41;;;;;;;2.70;2.20;;;;;;;5.83;68.84;98690.06;5064199;28;19932;-66
2021/12/04 02:38:10;;;;;;;3.10;2.45;;;;;;;5.85;68.86;98684.22;5068666;28;20052;-66
2021/12/04 02:40:38;;;;;;;4.00;2.25;;;;;;;5.82;68.70;98687.66;5063273;28;20053;-66
2021/12/04 02:43:08;;;;;;;2.88;2.33;;;;;;;5.89;69.21;98679.66;5052577;28;20056;-66
2021/12/04 02:45:35;;;;;;;2.78;2.10;;;;;;;5.89;68.41;98680.47;5052215;28;20075;-66
2021/12/04 02:48:03;;;;;;;3.47;2.28;;;;;;;5.96;68.78;98668.16;5052717;28;20045;-66
2021/12/04 02:50:30;;;;;;;2.53;2.05;;;;;;;5.94;68.87;98679.47;5062981;28;20408;-66
2021/12/04 02:52:57;;;;;;;3.65;2.55;;;;;;;5.92;68.42;98667.94;5052651;28;20048;-66
2021/12/04 02:55:26;;;;;;;3.05;2.40;;;;;;;6.03;68.57;98662.94;5055850;28;20493;-65
2021/12/04 02:57:54;;;;;;;2.70;2.50;;;;;;;5.95;68.82;98656.28;5057801;28;20693;-65
2021/12/04 03:00:23;;;;;;;3.30;2.40;;;;;;;6.06;68.42;98656.75;5065701;28;20052;-65
2021/12/04 03:02:51;;;;;;;2.92;2.60;;;;;;;5.98;69.12;98658.38;5052452;28;20045;-65
2021/12/04 03:05:23;;;;;;;2.90;2.28;;;;;;;6.08;68.00;98662.75;5062872;28;20048;-65
2021/12/04 03:07:51;;;;;;;2.97;2.33;;;;;;;6.07;68.25;98653.66;5064056;28;20504;-65
2021/12/04 03:10:21;;;;;;;3.35;2.10;;;;;;;5.90;69.38;98651.72;5072767;28;20053;-65
2021/12/04 03:12:50;;;;;;;3.60;2.60;;;;;;;5.80;69.21;98643.78;5053330;28;20052;-65
2021/12/04 03:15:20;;;;;;;3.22;2.50;;;;;;;5.81;69.18;98639.84;5052432;28;20705;-65
2021/12/04 03:17:47;;;;;;;3.38;2.15;;;;;;;5.88;68.66;98628.31;5052110;28;20060;-65
2021/12/04 03:20:15;;;;;;;4.38;2.63;;;;;;;5.91;69.06;98627.66;5054415;28;20067;-65
2021/12/04 03:22:46;;;;;;;2.95;2.47;;;;;;;5.79;69.65;98616.47;5064586;28;20045;-65
2021/12/04 03:25:18;;;;;;;3.17;2.38;;;;;;;5.78;69.76;98628.66;5053478;28;20064;-65
2021/12/04 03:27:48;;;;;;;3.35;2.40;;;;;;;5.82;69.11;98624.13;5055044;28;20053;-65
2021/12/04 03:30:29;;;;;;;2.88;2.45;;;;;;;5.95;69.63;98603.78;5064632;28;20053;-65
2021/12/04 03:41:07;;;;;;;2.50;2.05;;;;;;;5.63;70.60;98602.38;5069963;28;20056;-65
2021/12/04 03:43:35;;;;;;;2.92;2.47;;;;;;;5.71;70.20;98590.47;5069303;28;20624;-65
2021/12/04 03:46:06;;;;;;;3.33;2.35;;;;;;;5.85;69.37;98585.56;5051730;28;20053;-65
2021/12/04 03:48:53;;;;;;;3.83;2.42;;;;;;;5.84;69.48;98583.16;5051745;28;20103;-65
2021/12/04 03:51:21;;;;;;;2.40;1.77;;;;;;;5.72;69.70;98577.50;5062341;28;20502;-65
2021/12/04 03:53:49;;;;;;;3.35;2.20;;;;;;;5.74;69.85;98586.25;5055672;28;20497;-65
2021/12/04 03:56:21;;;;;;;2.70;2.20;;;;;;;5.84;69.41;98566.56;5064001;28;20052;-65
2021/12/04 03:58:49;;;;;;;3.17;2.15;;;;;;;5.88;69.14;98565.59;5054096;28;20057;-65
2021/12/04 04:01:17;;;;;;;2.33;1.98;;;;;;;5.81;69.68;98558.94;5064993;28;20053;-65
2021/12/04 04:03:45;;;;;;;2.83;2.25;;;;;;;5.73;69.60;98565.28;5071040;28;20520;-65
2021/12/04 04:06:12;;;;;;;3.08;1.83;;;;;;;5.64;70.15;98563.34;5060043;28;20055;-65
2021/12/04 04:08:39;;;;;;;2.75;1.98;;;;;;;5.74;69.74;98562.22;5071734;28;20405;-65
2021/12/04 04:11:08;;;;;;;2.63;2.08;;;;;;;5.78;69.26;98576.19;5060530;28;20473;-65
2021/12/04 04:13:36;;;;;;;2.50;1.92;;;;;;;5.83;69.64;98556.66;5071736;28;20066;-65
2021/12/04 04:16:04;;;;;;;2.92;1.73;;;;;;;5.79;70.06;98558.44;5057140;28;20202;-65
2021/12/04 04:18:33;;;;;;;3.25;2.00;;;;;;;5.85;69.66;98565.41;5071573;28;20059;-65
2021/12/04 04:21:01;;;;;;;3.23;1.80;;;;;;;5.86;69.20;98556.00;5066397;28;20064;-65
2021/12/04 04:23:31;;;;;;;2.50;2.00;;;;;;;5.97;69.30;98560.06;5054282;28;20053;-65
2021/12/04 04:25:58;;;;;;;1.92;1.42;;;;;;;6.00;69.11;98559.38;5053756;28;20057;-65
2021/12/04 04:28:25;;;;;;;2.47;1.70;;;;;;;6.03;68.80;98558.72;5071601;28;20056;-65
2021/12/04 04:30:53;;;;;;;2.10;1.80;;;;;;;6.01;68.88;98562.97;5068562;28;20071;-65
2021/12/04 04:33:20;;;;;;;2.25;1.70;;;;;;;5.99;69.16;98556.97;5071396;28;20052;-65
2021/12/04 04:36:02;;;;;;;2.10;1.70;;;;;;;6.05;68.55;98555.63;5068463;28;20045;-65
2021/12/04 04:38:37;;;;;;;2.40;1.80;;;;;;;6.02;69.44;98559.84;5065456;28;20056;-65
2021/12/04 04:57:47;;;;;;;2.80;1.90;;;;;;;5.84;69.48;98539.75;5059680;28;20064;-66
2021/12/04 05:11:20;;;;;;;3.17;1.75;;;;;;;5.85;69.80;98521.22;5060833;28;20488;-66
2021/12/04 05:13:51;;;;;;;2.67;2.00;;;;;;;5.92;69.81;98526.22;5054270;28;20060;-66
2021/12/04 05:16:21;;;;;;;2.30;1.80;;;;;;;5.91;69.81;98533.72;5054221;28;20487;-66
2021/12/04 05:18:55;;;;;;;3.45;2.03;;;;;;;5.92;70.03;98523.47;5054565;28;20057;-66
2021/12/04 05:21:22;;;;;;;2.83;2.05;;;;;;;5.90;69.95;98521.06;5054287;28;20045;-66
2021/12/04 05:23:54;;;;;;;3.22;2.00;;;;;;;5.97;69.98;98529.66;5067809;28;20057;-66
2021/12/04 05:26:24;;;;;;;2.50;2.05;;;;;;;5.96;69.55;98516.97;5065824;28;20420;-66
2021/12/04 05:28:53;;;;;;;2.80;2.00;;;;;;;5.90;69.63;98526.56;5054319;28;20498;-66
2021/12/04 05:31:22;;;;;;;2.92;2.00;;;;;;;5.74;70.60;98514.44;5053734;28;20417;-66
2021/12/04 05:33:50;;;;;;;2.67;2.17;;;;;;;5.76;70.25;98512.97;5054502;28;20049;-66
2021/12/04 05:36:17;;;;;;;2.80;2.30;;;;;;;5.84;70.25;98511.31;5055446;28;20071;-65
2021/12/04 05:38:44;;;;;;;3.05;2.20;;;;;;;5.70;70.76;98512.31;5072662;28;20115;-65
2021/12/04 05:41:16;;;;;;;2.75;2.20;;;;;;;5.81;70.31;98511.97;5063583;28;20378;-65
2021/12/04 05:43:44;;;;;;;3.78;2.15;;;;;;;5.65;70.86;98508.94;5053474;28;20037;-65
2021/12/04 05:46:14;;;;;;;2.60;1.90;;;;;;;5.67;70.92;98507.47;5054062;28;20473;-65
2021/12/04 05:48:47;;;;;;;2.75;2.00;;;;;;;5.75;70.72;98507.75;5060979;28;20053;-66
2021/12/04 05:51:31;;;;;;;3.05;1.95;;;;;;;5.78;70.59;98507.13;5065408;28;20071;-66
2021/12/04 05:54:05;;;;;;;3.28;2.30;;;;;;;5.82;70.82;98503.34;5053020;28;20413;-66
2021/12/04 05:56:36;;;;;;;2.30;2.00;;;;;;;5.77;70.51;98511.00;5058410;28;20076;-66
2021/12/04 05:59:05;;;;;;;2.72;2.05;;;;;;;5.84;70.75;98511.31;5053331;28;20076;-65
2021/12/04 06:01:32;;;;;;;2.93;2.10;;;;;;;5.87;70.76;98513.41;5063481;28;20048;-65
2021/12/04 06:04:00;;;;;;;2.97;2.50;;;;;;;5.89;70.42;98511.94;5071949;28;20052;-65
2021/12/04 06:06:27;;;;;;;2.67;2.20;;;;;;;5.85;70.48;98512.94;5055159;28;20060;-65
2021/12/04 06:08:55;;;;;;;2.85;2.30;;;;;;;5.86;70.25;98504.31;5067034;28;21281;-65
2021/12/04 06:11:22;;;;;;;3.53;2.28;;;;;;;5.84;70.23;98505.78;5055509;28;20501;-66
2021/12/04 06:13:52;;;;;;;3.22;2.50;;;;;;;5.83;70.70;98501.41;5052950;28;20052;-65
2021/12/04 06:16:19;;;;;;;2.92;2.20;;;;;;;5.75;70.65;98499.47;5059041;28;20044;-65
2021/12/04 06:18:47;;;;;;;3.35;2.30;;;;;;;5.65;71.31;98501.47;5071225;28;20075;-66
2021/12/04 06:24:00;;;;;;;3.40;2.50;;;;;;;5.90;70.78;98504.47;5068645;28;20412;-65
2021/12/04 06:26:28;;;;;;;3.88;2.75;;;;;;;5.91;70.50;98506.06;5055104;28;20053;-65
2021/12/04 06:28:57;;;;;;;2.97;2.40;;;;;;;5.89;70.11;98503.63;5062054;28;20079;-66
2021/12/04 06:31:24;;;;;;;2.95;2.30;;;;;;;5.83;70.88;98496.66;5072683;28;20067;-65
2021/12/04 06:33:52;;;;;;;2.90;2.22;;;;;;;5.89;70.50;98497.31;5058221;28;20060;-66
2021/12/04 06:36:21;;;;;;;3.22;2.55;;;;;;;5.85;70.30;98490.81;5053129;28;20064;-66
2021/12/04 06:38:50;;;;;;;3.00;2.63;;;;;;;5.75;70.78;98489.22;5062945;28;20056;-66
2021/12/04 06:41:18;;;;;;;2.97;2.60;;;;;;;5.85;70.89;98496.34;5062040;28;20052;-66
2021/12/04 06:43:47;;;;;;;3.60;2.83;;;;;;;5.82;71.15;98505.31;5053787;28;20401;-66
2021/12/04 06:46:18;;;;;;;4.00;2.65;;;;;;;5.96;69.95;98494.06;5052549;28;20060;-65
2021/12/04 06:48:57;;;;;;;3.95;3.10;;;;;;;5.96;69.81;98492.09;5055086;28;20052;-65
2021/12/04 06:51:27;;;;;;;4.00;2.70;;;;;;;5.85;70.79;98490.81;5052155;28;20417;-66
2021/12/04 06:53:58;;;;;;;3.42;2.90;;;;;;;5.97;70.91;98496.50;5061816;28;20051;-66
2021/12/04 06:56:32;;;;;;;4.00;2.70;;;;;;;5.86;70.71;98487.75;5053827;28;20048;-66
2021/12/04 06:59:01;;;;;;;5.93;3.25;;;;;;;5.96;70.57;98492.09;5056598;28;20056;-67
2021/12/04 07:01:30;;;;;;;4.38;2.78;;;;;;;5.98;70.69;98494.53;5056393;28;20049;-66
2021/12/04 07:03:57;;;;;;;3.65;2.70;;;;;;;5.83;70.76;98491.16;5055770;28;20051;-65
2021/12/04 07:06:24;;;;;;;4.43;3.15;;;;;;;5.50;72.03;98496.47;5060682;28;20048;-66
2021/12/04 07:08:52;;;;;;;4.03;3.15;;;;;;;5.78;71.55;98490.53;5059757;28;20049;-66
2021/12/04 07:11:19;;;;;;;4.75;3.17;;;;;;;5.86;70.78;98486.94;5058544;28;20497;-65
2021/12/04 07:13:46;;;;;;;4.75;3.17;;;;;;;5.92;70.66;98491.09;5062333;28;20045;-66
2021/12/04 07:16:16;;;;;;;4.00;2.90;;;;;;;5.89;71.05;98489.03;5055452;28;20049;-65
2021/12/04 07:18:45;;;;;;;4.28;3.30;;;;;;;5.80;70.85;98488.25;5066326;28;20535;-66
2021/12/04 07:21:13;;;;;;;4.10;3.50;;;;;;;5.95;70.76;98481.41;5071788;28;20048;-66
2021/12/04 07:23:41;;;;;;;5.50;3.47;;;;;;;5.95;70.31;98489.69;5072395;28;20458;-66
2021/12/04 07:26:09;;;;;;;4.07;3.03;;;;;;;5.87;70.37;98486.59;5071760;28;20061;-66
2021/12/04 07:28:37;;;;;;;4.13;3.08;;;;;;;5.89;70.46;98477.97;5055843;28;20061;-66
2021/12/04 07:31:05;;;;;;;3.83;3.17;;;;;;;5.92;71.19;98474.53;5058215;28;20500;-66
2021/12/04 07:33:32;;;;;;;3.95;3.33;;;;;;;5.97;70.20;98471.63;5067540;28;20049;-66
2021/12/04 07:36:03;;;;;;;3.90;3.50;;;;;;;5.99;70.98;98472.09;5051715;28;20053;-66
2021/12/04 07:38:31;;;;;;;4.13;3.35;;;;;;;5.88;70.74;98477.16;5052225;28;20053;-67
2021/12/04 07:41:00;;;;;;;5.22;3.67;;;;;;;6.07;70.50;98471.25;5060767;28;20413;-67
2021/12/04 07:43:28;;;;;;;4.95;3.85;;;;;;;6.10;70.03;98476.09;5070417;28;20045;-67
2021/12/04 07:45:55;;;;;;;4.40;3.40;;;;;;;6.18;69.53;98479.16;5055346;28;20051;-67
2021/12/04 07:48:23;;;;;;;4.13;3.10;;;;;;;6.25;69.78;98477.47;5056906;28;20067;-67
2021/12/04 07:50:50;;;;;;;4.43;3.30;;;;;;;6.09;69.69;98482.78;5056200;28;20052;-67
2021/12/04 07:53:19;;;;;;;5.60;3.83;;;;;;;6.13;70.38;98487.63;5061463;28;20053;-67
2021/12/04 07:55:46;;;;;;;4.32;3.50;;;;;;;6.27;70.39;98477.13;5061863;28;20053;-67
2021/12/04 07:58:14;;;;;;;3.88;3.33;;;;;;;6.34;69.98;98484.91;5067090;28;20060;-67
2021/12/04 08:00:42;;;;;;;5.38;3.60;;;;;;;6.41;69.58;98483.22;5067240;28;20053;-67
2021/12/04 08:03:09;;;;;;;4.15;3.40;;;;;;;6.44;69.24;98485.31;5068180;28;20048;-67
2021/12/04 08:05:36;;;;;;;4.72;3.78;;;;;;;6.43;69.36;98478.19;5071989;28;20064;-67
2021/12/04 08:08:04;;;;;;;3.92;3.17;;;;;;;6.43;69.62;98480.94;5070161;28;20052;-67
2021/12/04 08:10:34;;;;;;;5.30;3.28;;;;;;;6.44;68.70;98474.25;5058240;28;20052;-67
2021/12/04 08:13:02;;;;;;;4.32;3.33;;;;;;;6.50;69.33;98470.13;5062897;28;20053;-67
2021/12/04 08:15:30;;;;;;;4.45;3.50;;;;;;;6.42;69.65;98470.22;5067939;28;20056;-67
2021/12/04 08:17:58;;;;;;;4.60;3.60;;;;;;;6.44;69.17;98476.22;5065356;28;20048;-67
2021/12/04 08:20:26;;;;;;;3.95;3.40;;;;;;;6.54;69.30;98484.13;5062011;28;20053;-67
2021/12/04 08:22:54;;;;;;;4.22;3.50;;;;;;;6.45;68.96;98489.72;5054709;28;20045;-67
2021/12/04 08:25:22;;;;;;;3.78;3.08;;;;;;;6.56;68.72;98486.56;5058827;28;20044;-67
2021/12/04 08:27:51;;;;;;;5.07;3.88;;;;;;;6.43;69.36;98482.91;5064798;28;20049;-67
2021/12/04 08:30:22;;;;;;;4.80;3.47;;;;;;;6.41;68.74;98486.00;5066953;28;20382;-67
2021/12/04 08:32:54;;;;;;;3.80;3.13;;;;;;;6.42;69.29;98487.59;5069544;28;20056;-67
2021/12/04 08:35:24;;;;;;;3.97;3.05;;;;;;;6.49;69.23;98496.19;5068349;28;20044;-67
2021/12/04 08:37:52;;;;;;;5.00;3.67;;;;;;;6.49;69.02;98478.78;5056048;28;20049;-67
2021/12/04 08:40:19;;;;;;;4.28;3.58;;;;;;;6.63;69.78;98473.78;5059281;28;20053;-67
2021/12/04 08:42:47;;;;;;;5.90;3.78;;;;;;;6.70;69.19;98467.72;5054509;28;20061;-67
2021/12/04 08:45:17;;;;;;;3.83;3.42;;;;;;;6.64;69.28;98466.31;5064119;28;20045;-66
2021/12/04 08:47:45;;;;;;;;;;;;;;;6.54;68.70;98459.22;5072762;28;20408;-66
2021/12/04 08:50:19;;;;;;;4.82;3.58;;;;;;;6.73;69.01;98469.00;5059852;28;19939;-67
2021/12/04 08:52:47;;;;;;;4.30;3.78;;;;;;;6.79;68.73;98468.47;5058952;28;21868;-67
2021/12/04 08:55:17;;;;;;;4.30;3.35;;;;;;;6.75;68.45;98461.97;5060243;28;20401;-67
2021/12/04 08:57:45;;;;;;;4.70;3.80;;;;;;;6.84;68.34;98464.66;5054899;28;20049;-67
2021/12/04 09:00:17;;;;;;;5.18;3.60;;;;;;;6.87;67.69;98461.25;5064795;28;20048;-66
2021/12/04 09:02:46;;;;;;;5.00;3.50;;;;;;;6.80;67.98;98464.53;5059080;28;20051;-66
2021/12/04 09:05:15;;;;;;;4.65;3.20;;;;;;;7.01;68.22;98453.44;5059299;28;20481;-67
2021/12/04 09:07:43;;;;;;;3.78;3.20;;;;;;;7.12;67.65;98453.84;5054768;28;20053;-66
2021/12/04 09:10:12;;;;;;;4.85;3.90;;;;;;;7.10;68.09;98450.59;5054322;28;20506;-67
2021/12/04 09:12:41;;;;;;;5.30;3.80;;;;;;;7.34;67.47;98458.16;5054650;28;20053;-67
2021/12/04 09:15:12;;;;;;;4.28;3.58;;;;;;;7.41;67.19;98461.19;5056269;28;20055;-67
2021/12/04 09:17:47;;;;;;;3.65;3.03;;;;;;;7.61;66.00;98456.72;5054401;28;20052;-65
2021/12/04 09:20:16;;;;;;;3.95;2.90;;;;;;;7.57;66.74;98452.22;5059303;28;20591;-66
2021/12/04 09:22:44;;;;;;;3.75;3.10;;;;;;;7.66;65.39;98442.63;5056966;28;20056;-66
2021/12/04 09:25:16;;;;;;;3.90;3.10;;;;;;;7.64;65.60;98444.97;5060830;28;20041;-66
2021/12/04 09:28:00;;;;;;;5.47;3.20;;;;;;;7.85;64.48;98444.03;5039962;28;20058;-67
2021/12/04 09:36:25;;;;;;;3.60;2.70;;;;;;;7.84;64.63;98450.72;5026854;28;20379;-67
2021/12/04 10:01:15;;;;;;;3.90;2.72;;;;;;;8.08;63.59;98422.19;5040353;28;20057;-67
2021/12/04 10:21:13;;;;;;;2.63;2.40;;;;;;;9.43;59.22;98368.94;5062020;28;20114;-66
2021/12/04 10:24:02;;;;;;;;;;;;;;;9.58;58.49;98366.50;5087972;28;20417;-66
2021/12/04 10:34:56;;;;;;;3.55;2.47;;;;;;;8.88;59.77;98338.16;5075914;28;20052;-66
2021/12/04 10:37:27;;;;;;;3.13;2.58;;;;;;;9.16;59.13;98337.28;5089189;28;20044;-66
2021/12/04 10:39:59;;;;;;;3.13;2.35;;;;;;;9.41;59.13;98342.63;5088331;28;20048;-66
2021/12/04 10:42:30;;;;;;;2.65;2.15;;;;;;;9.35;61.13;98339.34;5086457;28;20063;-50
2021/12/04 10:45:00;;;;;;;3.72;2.72;;;;;;;9.48;59.68;98338.06;5081736;28;20048;-64
2021/12/04 10:47:28;;;;;;;3.38;2.58;;;;;;;9.85;58.29;98328.59;5084910;28;20523;-64
2021/12/04 10:50:11;;;;;;;2.88;2.40;;;;;;;10.13;57.99;98322.88;5085718;28;20048;-64
2021/12/04 10:52:51;;;;;;;2.67;2.17;;;;;;;10.20;57.78;98317.47;5086263;28;20063;-64
2021/12/04 10:55:27;;;;;;;2.88;2.28;;;;;;;9.95;57.22;98325.25;5085938;28;20045;-64
2021/12/04 10:58:29;;;;;;;3.08;2.50;;;;;;;9.82;57.69;98312.66;5081128;28;20044;-64
2021/12/04 11:01:08;;;;;;;2.60;2.30;;;;;;;9.73;58.09;98304.53;5082093;28;20059;-64
2021/12/04 11:03:41;;;;;;;2.88;2.45;;;;;;;9.39;58.88;98297.78;5085140;28;20051;-64
2021/12/04 11:23:10;;;;;;;3.55;2.75;;;;;;;9.21;60.49;98250.09;5067028;28;20497;-64
2021/12/04 11:36:58;;;;;;;3.20;2.80;;;;;;;8.82;61.51;98216.59;5073828;28;20053;-64
2021/12/04 11:42:23;;;;;;;3.05;2.65;;;;;;;8.73;61.01;98203.75;5075971;28;20424;-64
2021/12/04 11:45:03;;;;;;;2.83;2.22;;;;;;;8.93;61.18;98204.59;5071363;28;20052;-64
2021/12/04 11:47:37;;;;;;;3.05;2.40;;;;;;;8.89;60.48;98189.84;5073560;28;20053;-64
2021/12/04 11:50:26;;;;;;;3.47;2.35;;;;;;;8.56;62.18;98179.09;5074343;28;20417;-64
2021/12/04 11:52:56;;;;;;;3.20;2.53;;;;;;;8.64;61.53;98185.63;5073701;28;20056;-64
2021/12/04 11:55:26;;;;;;;2.75;2.22;;;;;;;8.74;61.22;98185.91;5074195;28;20048;-64
2021/12/04 11:57:55;;;;;;;3.33;2.40;;;;;;;8.53;61.75;98175.06;5062106;28;20064;-64
2021/12/04 12:00:28;;;;;;;2.83;2.28;;;;;;;8.49;62.16;98171.41;5062931;28;20059;-64
2021/12/04 12:03:08;;;;;;;3.70;2.80;;;;;;;8.72;61.89;98174.34;5073984;28;20052;-64
2021/12/04 12:05:41;;;;;;;;;;;;;;;8.62;61.96;98163.78;5072902;28;20049;-64
2021/12/04 12:08:08;;;;;;;3.53;2.28;;;;;;;8.73;61.05;98151.00;5073795;28;19921;-64
2021/12/04 12:10:48;;;;;;;2.63;2.10;;;;;;;8.68;61.26;98147.69;5072473;28;20416;-64
2021/12/04 12:13:24;;;;;;;3.67;2.10;;;;;;;8.63;61.45;98142.38;5073351;28;20056;-64
2021/12/04 12:16:16;;;;;;;3.40;2.78;;;;;;;8.67;62.02;98140.50;5073013;28;20049;-64
2021/12/04 12:18:50;;;;;;;2.30;2.05;;;;;;;8.66;61.93;98147.25;5073281;28;20049;-64
2021/12/04 12:21:22;;;;;;;3.10;2.08;;;;;;;8.77;61.68;98148.28;5072638;28;20056;-64
2021/12/04 12:26:50;;;;;;;2.40;2.20;;;;;;;8.77;61.04;98142.75;5072080;28;20048;-64
2021/12/04 12:32:47;;;;;;;2.80;1.90;;;;;;;8.81;61.39;98143.63;5057485;28;20056;-64
2021/12/04 12:38:16;;;;;;;3.20;2.25;;;;;;;9.01;61.58;98140.91;5078539;28;20063;-64
2021/12/04 12:40:48;;;;;;;3.50;2.40;;;;;;;9.13;60.75;98127.75;5067983;28;20048;-64
2021/12/04 12:43:19;;;;;;;2.90;1.98;;;;;;;9.25;60.50;98129.56;5069170;28;20052;-64
2021/12/04 12:45:58;;;;;;;15.50;6.72;;;;;;;9.35;60.22;98130.97;5072862;28;20400;-64
2021/12/04 12:48:27;;;;;;;11.90;6.45;;;;;;;9.43;61.07;98123.59;5072388;28;20063;-64
2021/12/04 12:50:54;;;;;;;4.70;3.58;;;;;;;9.46;60.66;98120.88;5053341;28;20071;-64
2021/12/04 12:53:26;;;;;;;2.60;2.25;;;;;;;9.56;60.00;98113.97;5053152;28;20053;-64
2021/12/04 12:56:06;;;;;;;16.23;9.27;;;;;;;9.68;59.46;98099.91;5073308;28;20480;-64
2021/12/04 12:58:41;;;;;;;11.32;6.60;;;;;;;9.81;59.44;98100.56;5063565;28;20060;-64
2021/12/04 13:12:47;;;;;;;4.70;3.40;;;;;;;10.04;58.39;98047.75;5072398;28;20059;-64
2021/12/04 13:15:16;;;;;;;25.08;14.40;;;;;;;9.91;58.71;98043.53;5072032;28;20381;-63
2021/12/04 13:17:43;;;;;;;3.85;2.50;;;;;;;9.98;58.24;98052.00;5068518;28;20063;-63
2021/12/04 13:20:12;;;;;;;2.83;2.05;;;;;;;9.91;58.26;98054.66;5070215;28;20045;-63
2021/12/04 13:22:40;;;;;;;5.43;3.83;;;;;;;9.87;58.37;98043.47;5068649;28;20505;-63
2021/12/04 13:25:12;;;;;;;2.58;1.83;;;;;;;9.79;58.40;98041.75;5071353;28;20049;-64
2021/12/04 13:30:10;;;;;;;2.33;2.00;;;;;;;9.85;58.43;98033.88;5070810;28;20504;-63
2021/12/04 13:32:39;;;;;;;4.43;3.35;;;;;;;9.97;58.75;98025.34;5070248;28;20048;-63
2021/12/04 13:35:10;;;;;;;8.57;5.97;;;;;;;9.99;59.01;98027.78;5070246;28;20393;-63
2021/12/04 13:37:39;;;;;;;3.90;1.98;;;;;;;9.53;59.46;98042.41;5052318;28;20052;-63
2021/12/04 13:40:09;;;;;;;2.60;1.80;;;;;;;9.66;59.17;98043.88;5069419;28;20048;-64
2021/12/04 13:42:39;;;;;;;2.25;1.73;;;;;;;9.68;59.03;98033.19;5071220;28;20060;-64
2021/12/04 13:45:07;;;;;;;;;;;;;;;9.55;59.07;98045.63;5071179;28;20052;-64
2021/12/04 13:47:35;;;;;;;2.60;1.92;;;;;;;9.47;59.65;98047.50;5070330;28;19920;-64
2021/12/04 13:52:49;;;;;;;3.75;2.75;;;;;;;9.55;60.38;98046.47;5067293;28;20060;-64
2021/12/04 13:55:18;;;;;;;2.85;2.30;;;;;;;9.60;60.30;98050.91;5071293;28;20390;-64
2021/12/04 13:57:46;;;;;;;2.83;2.35;;;;;;;9.51;60.22;98048.38;5069500;28;20470;-64
2021/12/04 14:00:16;;;;;;;3.17;2.45;;;;;;;9.58;59.61;98047.69;5069289;28;20147;-64
2021/12/04 14:02:44;;;;;;;3.72;2.47;;;;;;;9.57;60.08;98046.06;5070793;28;20052;-64
2021/12/04 14:05:13;;;;;;;3.33;2.88;;;;;;;9.55;60.20;98046.47;5068539;28;20057;-64
2021/12/04 14:07:49;;;;;;;2.70;2.25;;;;;;;9.52;60.11;98060.28;5069355;28;20055;-64
2021/12/04 14:10:19;;;;;;;3.03;2.35;;;;;;;9.53;60.25;98064.66;5069966;28;20507;-64
2021/12/04 14:12:49;;;;;;;4.38;2.90;;;;;;;9.49;60.64;98072.94;5070406;28;20520;-64
2021/12/04 14:15:20;;;;;;;3.88;2.30;;;;;;;9.30;61.01;98068.19;5070615;28;20055;-64
2021/12/04 14:17:49;;;;;;;3.67;2.80;;;;;;;9.30;61.30;98076.53;5060043;28;20400;-64
2021/12/04 14:20:24;;;;;;;2.47;2.08;;;;;;;9.02;61.67;98073.13;5062760;28;20044;-64
2021/12/04 14:22:54;;;;;;;2.67;1.98;;;;;;;8.82;63.83;98072.25;5066997;28;20067;-64
2021/12/04 14:25:23;;;;;;;3.72;2.22;;;;;;;8.65;63.91;98073.47;5068351;28;20060;-64
2021/12/04 14:27:52;;;;;;;9.68;5.32;;;;;;;8.34;66.86;98081.44;5070479;28;20055;-64
2021/12/04 14:30:22;;;;;;;3.72;2.70;;;;;;;8.23;67.22;98085.91;5070543;28;20512;-64
2021/12/04 14:32:53;;;;;;;6.15;3.20;;;;;;;8.07;67.56;98077.59;5071587;28;20056;-64
2021/12/04 14:35:22;;;;;;;4.15;3.47;;;;;;;8.23;68.11;98074.81;5070121;28;20044;-64
2021/12/04 14:37:55;;;;;;;3.67;2.92;;;;;;;8.05;68.04;98077.13;5070195;28;20071;-65